createdAt,value
2019-04-04T00:01:49.984Z,34.27
2019-04-04T00:04:21.783Z,34.36
2019-04-04T00:06:51.383Z,34.47
2019-04-04T00:09:21.052Z,34.62
2019-04-04T00:11:51.050Z,34.71
2019-04-04T00:14:21.690Z,34.76
2019-04-04T00:16:51.707Z,34.88
2019-04-04T00:19:21.546Z,35.03
2019-04-04T00:21:51.303Z,35.12
2019-04-04T00:24:21.192Z,35.20
2019-04-04T00:26:50.961Z,35.27
2019-04-04T00:29:20.724Z,35.35
2019-04-04T00:31:50.525Z,35.50
2019-04-04T00:34:20.296Z,35.72
2019-04-04T00:36:50.047Z,35.69
2019-04-04T00:39:19.879Z,35.82
2019-04-04T00:41:49.653Z,35.84
2019-04-04T00:44:22.709Z,35.91
2019-04-04T00:46:50.912Z,36.05
2019-04-04T00:49:20.670Z,36.15
2019-04-04T00:51:50.435Z,36.22
2019-04-04T00:54:20.735Z,36.39
2019-04-04T00:56:51.666Z,36.36
2019-04-04T00:59:23.031Z,36.52
2019-04-04T01:01:53.001Z,36.59
2019-04-04T01:04:24.422Z,36.65
2019-04-04T01:06:54.198Z,36.79
2019-04-04T01:09:24.038Z,36.86
2019-04-04T01:11:53.800Z,36.98
2019-04-04T01:14:23.563Z,37.20
2019-04-04T01:16:53.376Z,37.28
2019-04-04T01:19:23.228Z,37.36
2019-04-04T01:21:53.884Z,37.58
2019-04-04T01:24:23.737Z,37.77
2019-04-04T01:26:53.497Z,37.74
2019-04-04T01:29:23.260Z,37.88
2019-04-04T01:31:53.169Z,38.09
2019-04-04T01:34:22.918Z,38.38
2019-04-04T01:36:56.163Z,38.61
2019-04-04T01:39:24.222Z,38.61
2019-04-04T01:41:53.970Z,38.77
2019-04-04T01:44:23.735Z,38.92
2019-04-04T01:46:53.552Z,39.12
2019-04-04T01:49:23.304Z,39.26
2019-04-04T01:51:54.884Z,39.46
2019-04-04T01:54:24.611Z,39.56
2019-04-04T01:56:54.365Z,39.63
2019-04-04T01:59:24.198Z,39.58
2019-04-04T02:01:54.090Z,39.71
2019-04-04T02:04:24.879Z,39.88
2019-04-04T02:06:55.189Z,39.87
2019-04-04T02:09:24.992Z,39.85
2019-04-04T02:12:07.975Z,39.84
2019-04-04T02:14:42.763Z,39.84
2019-04-04T02:17:23.403Z,39.68
2019-04-04T02:19:55.587Z,39.66
2019-04-04T02:22:25.018Z,39.72
2019-04-04T02:24:54.775Z,39.75
2019-04-04T02:27:29.001Z,39.75
2019-04-04T02:29:58.760Z,39.72
2019-04-04T02:32:29.593Z,39.71
2019-04-04T02:35:09.996Z,39.69
2019-04-04T02:37:38.694Z,39.69
2019-04-04T02:40:09.967Z,39.52
2019-04-04T02:42:40.032Z,39.53
2019-04-04T02:45:09.884Z,39.62
2019-04-04T02:47:51.238Z,39.54
2019-04-04T02:50:20.199Z,39.61
2019-04-04T02:52:49.965Z,39.52
2019-04-04T02:55:21.342Z,39.55
2019-04-04T02:57:56.487Z,39.42
2019-04-04T03:00:27.618Z,39.37
2019-04-04T03:03:24.244Z,39.28
2019-04-04T03:05:54.007Z,39.14
2019-04-04T03:08:37.689Z,38.92
2019-04-04T03:11:13.458Z,38.83
2019-04-04T03:13:43.349Z,38.77
2019-04-04T03:16:13.170Z,38.67
2019-04-04T03:18:43.021Z,38.65
2019-04-04T03:21:21.940Z,38.54
2019-04-04T03:23:59.549Z,38.51
2019-04-04T03:26:29.265Z,38.45
2019-04-04T03:28:59.035Z,38.38
2019-04-04T03:31:36.465Z,38.33
2019-04-04T03:34:10.932Z,38.28
2019-04-04T03:36:39.213Z,38.32
2019-04-04T03:39:08.906Z,38.46
2019-04-04T03:41:48.517Z,38.38
2019-04-04T03:44:20.073Z,38.39
2019-04-04T03:46:49.704Z,38.31
2019-04-04T03:49:23.366Z,38.54
2019-04-04T03:52:04.599Z,38.57
2019-04-04T03:54:37.467Z,38.50
2019-04-04T03:57:18.099Z,38.46
2019-04-04T03:59:55.625Z,38.47
2019-04-04T04:02:25.371Z,38.39
2019-04-04T04:05:00.329Z,38.55
2019-04-04T04:07:27.056Z,38.59
2019-04-04T04:09:59.721Z,38.64
2019-04-04T04:12:27.998Z,38.66
2019-04-04T04:14:57.656Z,38.72
2019-04-04T04:17:27.276Z,38.71
2019-04-04T04:19:56.956Z,38.81
2019-04-04T04:22:27.600Z,38.72
2019-04-04T04:25:02.050Z,38.79
2019-04-04T04:27:28.944Z,38.90
2019-04-04T04:30:00.167Z,38.90
2019-04-04T04:32:29.955Z,38.91
2019-04-04T04:35:00.158Z,38.88
2019-04-04T04:37:29.935Z,38.74
2019-04-04T04:40:00.035Z,38.88
2019-04-04T04:42:29.665Z,38.73
2019-04-04T04:44:59.334Z,38.73
2019-04-04T04:47:30.626Z,38.74
2019-04-04T04:50:00.254Z,38.71
2019-04-04T04:52:30.107Z,38.62
2019-04-04T04:54:59.723Z,38.49
2019-04-04T04:57:30.371Z,38.20
2019-04-04T05:00:00.861Z,38.26
2019-04-04T05:02:30.525Z,38.09
2019-04-04T05:05:00.154Z,38.09
2019-04-04T05:07:29.915Z,37.93
2019-04-04T05:09:59.547Z,37.81
2019-04-04T05:12:29.165Z,37.65
2019-04-04T05:14:59.246Z,37.67
2019-04-04T05:17:30.676Z,37.56
2019-04-04T05:20:00.300Z,37.31
2019-04-04T05:22:30.156Z,37.30
2019-04-04T05:25:08.041Z,37.29
2019-04-04T05:27:31.106Z,37.17
2019-04-04T05:30:01.259Z,37.10
2019-04-04T05:32:30.924Z,37.19
2019-04-04T05:35:01.329Z,37.12
2019-04-04T05:37:31.801Z,36.90
2019-04-04T05:40:01.440Z,36.89
2019-04-04T05:42:33.018Z,36.84
2019-04-04T05:45:02.717Z,36.85
2019-04-04T05:47:33.311Z,37.01
2019-04-04T05:50:03.130Z,36.96
2019-04-04T05:52:33.184Z,37.01
2019-04-04T05:55:02.875Z,36.94
2019-04-04T05:57:32.505Z,37.27
2019-04-04T06:00:02.214Z,37.44
2019-04-04T06:02:31.814Z,37.71
2019-04-04T06:05:03.143Z,37.31
2019-04-04T06:07:34.248Z,37.31
2019-04-04T06:10:06.971Z,37.18
2019-04-04T06:12:37.640Z,37.52
2019-04-04T06:15:08.680Z,37.17
2019-04-04T06:17:39.109Z,37.25
2019-04-04T06:20:09.896Z,37.22
2019-04-04T06:22:39.674Z,37.01
2019-04-04T06:25:09.419Z,36.98
2019-04-04T06:27:40.975Z,37.46
2019-04-04T06:30:11.255Z,37.25
2019-04-04T06:32:42.416Z,37.57
2019-04-04T06:35:13.336Z,37.39
2019-04-04T06:37:45.987Z,37.28
2019-04-04T06:40:15.806Z,37.00
2019-04-04T06:42:45.782Z,36.96
2019-04-04T06:45:16.182Z,37.19
2019-04-04T06:47:46.386Z,37.09
2019-04-04T06:50:16.184Z,37.00
2019-04-04T06:52:45.989Z,37.04
2019-04-04T06:55:15.767Z,36.76
2019-04-04T06:57:47.936Z,36.47
2019-04-04T07:00:17.812Z,36.53
2019-04-04T07:02:47.552Z,36.53
2019-04-04T07:05:17.161Z,36.51
2019-04-04T07:07:46.886Z,36.50
2019-04-04T07:10:16.516Z,36.54
2019-04-04T07:12:48.854Z,36.44
2019-04-04T07:15:17.656Z,36.43
2019-04-04T07:17:47.288Z,36.58
2019-04-04T07:20:19.775Z,36.59
2019-04-04T07:22:55.612Z,36.54
2019-04-04T07:25:24.280Z,36.58
2019-04-04T07:27:53.903Z,36.76
2019-04-04T07:30:27.987Z,36.45
2019-04-04T07:32:56.522Z,36.61
2019-04-04T07:35:26.154Z,36.58
2019-04-04T07:37:57.540Z,36.72
2019-04-04T07:40:27.379Z,36.87
2019-04-04T07:42:59.796Z,36.58
2019-04-04T07:45:29.971Z,36.99
2019-04-04T07:47:59.586Z,36.99
2019-04-04T07:50:32.243Z,37.03
2019-04-04T07:53:03.910Z,37.08
2019-04-04T07:55:33.402Z,36.99
2019-04-04T07:58:03.108Z,37.05
2019-04-04T08:00:32.777Z,37.20
2019-04-04T08:03:02.421Z,37.14
2019-04-04T08:05:40.960Z,37.25
2019-04-04T08:08:10.613Z,37.34
2019-04-04T08:10:40.266Z,37.07
2019-04-04T08:13:35.838Z,37.06
2019-04-04T08:16:05.549Z,37.06
2019-04-04T08:18:35.203Z,37.06
2019-04-04T08:21:05.825Z,37.11
2019-04-04T08:23:35.588Z,37.41
2019-04-04T08:26:05.307Z,37.24
2019-04-04T08:28:35.062Z,37.41
2019-04-04T08:31:05.412Z,36.97
2019-04-04T08:33:36.233Z,37.36
2019-04-04T08:36:06.692Z,37.22
2019-04-04T08:38:36.545Z,37.22
2019-04-04T08:41:06.176Z,37.62
2019-04-04T08:43:36.953Z,37.51
2019-04-04T08:46:06.591Z,37.43
2019-04-04T08:48:36.224Z,37.46
2019-04-04T08:51:05.972Z,37.25
2019-04-04T08:53:40.277Z,37.26
2019-04-04T08:56:06.951Z,37.39
2019-04-04T08:58:36.632Z,37.57
2019-04-04T09:01:06.253Z,38.80
2019-04-04T09:03:37.364Z,38.38
2019-04-04T09:06:07.091Z,38.65
2019-04-04T09:08:36.731Z,38.57
2019-04-04T09:11:06.367Z,38.53
2019-04-04T09:13:36.035Z,38.59
2019-04-04T09:16:06.042Z,38.65
2019-04-04T09:18:35.710Z,38.68
2019-04-04T09:21:05.512Z,38.32
2019-04-04T09:23:37.930Z,38.28
2019-04-04T09:26:07.573Z,38.50
2019-04-04T09:28:37.323Z,38.79
2019-04-04T09:31:07.029Z,38.42
2019-04-04T09:33:36.657Z,38.85
2019-04-04T09:36:06.337Z,38.78
2019-04-04T09:38:36.754Z,38.70
2019-04-04T09:41:06.959Z,38.66
2019-04-04T09:43:36.617Z,39.05
2019-04-04T09:46:06.252Z,38.31
2019-04-04T09:48:36.162Z,38.39
2019-04-04T09:51:05.683Z,38.26
2019-04-04T09:53:35.321Z,38.08
2019-04-04T09:56:05.231Z,38.48
2019-04-04T09:58:34.959Z,38.26
2019-04-04T10:01:06.551Z,38.16
2019-04-04T10:03:36.148Z,37.90
2019-04-04T10:06:05.855Z,38.08
2019-04-04T10:08:38.588Z,38.01
2019-04-04T10:11:07.092Z,37.85
2019-04-04T10:13:36.757Z,37.77
2019-04-04T10:16:06.457Z,38.04
2019-04-04T10:18:36.084Z,37.67
2019-04-04T10:21:11.665Z,37.82
2019-04-04T10:23:37.088Z,37.42
2019-04-04T10:26:06.788Z,37.43
2019-04-04T10:28:36.482Z,37.60
2019-04-04T10:31:06.109Z,38.07
2019-04-04T10:33:35.743Z,37.71
2019-04-04T10:36:05.554Z,38.06
2019-04-04T10:38:36.856Z,37.75
2019-04-04T10:41:06.549Z,38.01
2019-04-04T10:43:36.313Z,38.41
2019-04-04T10:46:05.954Z,37.66
2019-04-04T10:48:35.580Z,37.76
2019-04-04T10:51:05.255Z,37.92
2019-04-04T10:53:34.891Z,38.07
2019-04-04T10:56:04.591Z,37.96
2019-04-04T10:58:34.270Z,37.95
2019-04-04T11:01:03.968Z,37.95
2019-04-04T11:03:33.598Z,37.90
2019-04-04T11:06:03.309Z,37.31
2019-04-04T11:08:32.956Z,37.47
2019-04-04T11:11:02.963Z,37.64
2019-04-04T11:13:34.054Z,37.51
2019-04-04T11:16:03.876Z,37.31
2019-04-04T11:18:33.510Z,37.31
2019-04-04T11:21:03.216Z,37.15
2019-04-04T11:23:32.858Z,37.17
2019-04-04T11:26:02.483Z,37.41
2019-04-04T11:28:32.152Z,37.11
2019-04-04T11:31:01.791Z,36.97
2019-04-04T11:33:31.443Z,36.82
2019-04-04T11:36:01.112Z,36.46
2019-04-04T11:38:30.745Z,36.44
2019-04-04T11:41:00.380Z,36.69
2019-04-04T11:43:30.072Z,36.46
2019-04-04T11:45:59.723Z,36.11
2019-04-04T11:48:29.681Z,35.75
2019-04-04T11:50:59.356Z,35.93
2019-04-04T11:53:28.991Z,36.19
2019-04-04T11:55:58.622Z,35.94
2019-04-04T11:58:28.295Z,35.73
2019-04-04T12:00:59.677Z,35.51
2019-04-04T12:03:29.947Z,35.30
2019-04-04T12:05:59.663Z,36.25
2019-04-04T12:08:29.364Z,34.80
2019-04-04T12:10:59.674Z,34.08
2019-04-04T12:13:29.353Z,33.35
2019-04-04T12:16:00.027Z,33.10
2019-04-04T12:18:29.664Z,33.27
2019-04-04T12:20:59.363Z,33.11
2019-04-04T12:23:29.036Z,32.80
2019-04-04T12:25:58.625Z,32.54
2019-04-04T12:28:28.290Z,31.33
2019-04-04T12:30:59.545Z,29.89
2019-04-04T12:33:29.181Z,28.29
2019-04-04T12:35:58.872Z,26.67
2019-04-04T12:38:28.534Z,25.12
2019-04-04T12:40:58.136Z,23.94
2019-04-04T12:43:27.825Z,23.29
2019-04-04T12:45:57.443Z,20.96
2019-04-04T12:48:27.075Z,20.61
2019-04-04T12:50:56.815Z,19.23
2019-04-04T12:53:26.506Z,19.34
2019-04-04T12:55:56.142Z,20.86
2019-04-04T12:58:25.837Z,21.77
2019-04-04T13:00:55.762Z,22.74
2019-04-04T13:03:25.430Z,22.99
2019-04-04T13:05:55.127Z,23.37
2019-04-04T13:08:24.812Z,22.97
2019-04-04T13:10:54.491Z,22.73
2019-04-04T13:13:24.117Z,21.76
2019-04-04T13:15:54.026Z,21.17
2019-04-04T13:18:23.707Z,21.05
2019-04-04T13:20:53.378Z,20.33
2019-04-04T13:23:23.919Z,20.07
2019-04-04T13:25:53.548Z,19.82
2019-04-04T13:28:23.224Z,18.86
2019-04-04T13:30:52.847Z,18.08
2019-04-04T13:33:22.724Z,17.44
2019-04-04T13:35:52.436Z,16.54
2019-04-04T13:38:22.063Z,15.86
2019-04-04T13:40:51.700Z,15.39
2019-04-04T13:43:22.574Z,15.15
2019-04-04T13:45:53.477Z,15.24
2019-04-04T13:48:23.112Z,15.25
2019-04-04T13:50:52.890Z,15.21
2019-04-04T13:53:25.211Z,15.14
2019-04-04T13:55:54.446Z,15.06
2019-04-04T13:58:24.268Z,16.64
2019-04-04T14:00:53.904Z,17.72
2019-04-04T14:03:23.538Z,17.30
2019-04-04T14:05:53.268Z,16.67
2019-04-04T14:08:22.961Z,16.21
2019-04-04T14:10:57.958Z,16.90
2019-04-04T14:13:26.209Z,18.86
2019-04-04T14:15:55.350Z,20.96
2019-04-04T14:18:38.981Z,22.81
2019-04-04T14:21:03.658Z,23.89
2019-04-04T14:23:34.746Z,25.03
2019-04-04T14:26:04.677Z,25.82
2019-04-04T14:28:37.458Z,26.28
2019-04-04T14:31:07.198Z,26.46
2019-04-04T14:33:36.871Z,27.13
2019-04-04T14:36:06.511Z,27.31
2019-04-04T14:38:36.139Z,27.29
2019-04-04T14:41:11.452Z,27.61
2019-04-04T14:43:37.159Z,28.29
2019-04-04T14:46:07.825Z,27.97
2019-04-04T14:48:37.886Z,28.15
2019-04-04T14:51:07.663Z,28.15
2019-04-04T14:53:37.846Z,28.54
2019-04-04T14:56:07.536Z,28.74
2019-04-04T14:58:37.165Z,28.98
2019-04-04T15:01:06.874Z,28.99
2019-04-04T15:03:36.535Z,29.10
2019-04-04T15:06:06.168Z,28.96
2019-04-04T15:08:35.977Z,28.97
2019-04-04T15:11:05.679Z,28.54
2019-04-04T15:13:35.464Z,28.60
2019-04-04T15:16:15.321Z,28.78
2019-04-04T15:18:45.020Z,28.67
2019-04-04T15:21:15.280Z,28.57
2019-04-04T15:23:44.954Z,28.54
2019-04-04T15:26:14.579Z,28.58
2019-04-04T15:28:44.220Z,28.73
2019-04-04T15:31:13.917Z,29.02
2019-04-04T15:33:43.552Z,29.16
2019-04-04T15:36:19.961Z,29.64
2019-04-04T15:38:49.668Z,30.15
2019-04-04T15:41:19.292Z,30.47
2019-04-04T15:43:52.063Z,30.28
2019-04-04T15:46:21.799Z,30.23
2019-04-04T15:48:51.424Z,30.27
2019-04-04T15:51:21.138Z,30.23
2019-04-04T15:53:50.873Z,30.38
2019-04-04T15:56:20.505Z,30.64
2019-04-04T15:58:50.154Z,31.07
2019-04-04T16:01:19.863Z,31.50
2019-04-04T16:03:49.681Z,31.93
2019-04-04T16:06:19.378Z,32.55
2019-04-04T16:08:49.086Z,32.85
2019-04-04T16:11:18.873Z,32.99
2019-04-04T16:13:48.508Z,33.14
2019-04-04T16:16:18.250Z,33.38
2019-04-04T16:18:52.677Z,33.81
2019-04-04T16:21:26.478Z,33.96
2019-04-04T16:23:56.161Z,34.24
2019-04-04T16:26:25.789Z,34.42
2019-04-04T16:28:55.504Z,34.57
2019-04-04T16:31:28.314Z,34.75
2019-04-04T16:34:10.634Z,34.99
2019-04-04T16:36:43.029Z,35.23
2019-04-04T16:39:12.661Z,35.80
2019-04-04T16:41:42.414Z,35.83
2019-04-04T16:44:12.257Z,35.98
2019-04-04T16:46:41.901Z,36.07
2019-04-04T16:49:11.609Z,36.22
2019-04-04T16:51:41.306Z,36.28
2019-04-04T16:54:10.907Z,36.38
2019-04-04T16:56:40.549Z,36.57
2019-04-04T16:59:10.197Z,36.71
2019-04-04T17:01:39.871Z,37.06
2019-04-04T17:04:17.002Z,37.25
2019-04-04T17:06:54.586Z,37.54
2019-04-04T17:09:23.964Z,37.76
2019-04-04T17:11:55.247Z,37.90
2019-04-04T17:14:50.886Z,38.00
2019-04-04T17:17:27.213Z,38.18
2019-04-04T17:19:57.700Z,38.42
2019-04-04T17:22:25.638Z,38.46
2019-04-04T17:24:58.896Z,38.59
2019-04-04T17:27:30.228Z,38.80
2019-04-04T17:30:00.653Z,38.94
2019-04-04T17:32:30.659Z,39.08
2019-04-04T17:35:00.331Z,39.35
2019-04-04T17:37:30.756Z,39.37
2019-04-04T17:40:00.548Z,39.38
2019-04-04T17:42:32.844Z,39.57
2019-04-04T17:45:02.623Z,39.78
2019-04-04T17:47:32.947Z,39.87
2019-04-04T17:50:02.858Z,39.97
2019-04-04T17:52:35.541Z,40.22
2019-04-04T17:55:30.344Z,40.40
2019-04-04T17:58:00.106Z,40.52
2019-04-04T18:00:31.405Z,40.74
2019-04-04T18:03:02.578Z,40.98
2019-04-04T18:05:32.488Z,41.24
2019-04-04T18:08:03.135Z,41.51
2019-04-04T18:17:28.487Z,42.01
2019-04-04T18:27:11.895Z,42.20
2019-04-04T18:29:47.739Z,42.29
2019-04-04T18:32:21.775Z,42.38
2019-04-04T18:34:53.266Z,42.46
2019-04-04T18:37:23.032Z,42.44
2019-04-04T18:40:01.542Z,42.60
2019-04-04T18:42:39.034Z,42.71
2019-04-04T18:45:08.925Z,42.90
2019-04-04T18:47:38.575Z,43.03
2019-04-04T18:50:08.797Z,43.14
2019-04-04T18:52:38.616Z,43.36
2019-04-04T18:55:19.062Z,43.47
2019-04-04T18:57:39.823Z,43.55
2019-04-04T19:00:14.137Z,43.62
2019-04-04T19:02:43.961Z,43.76
2019-04-04T19:05:14.035Z,43.83
2019-04-04T19:07:43.671Z,44.03
2019-04-04T19:10:14.280Z,44.15
2019-04-04T19:12:46.938Z,44.27
2019-04-04T19:15:17.120Z,44.41
2019-04-04T19:17:49.545Z,44.62
2019-04-04T19:20:19.199Z,44.70
2019-04-04T19:22:48.846Z,44.83
2019-04-04T19:25:18.558Z,45.18
2019-04-04T19:27:48.275Z,45.11
2019-04-04T19:30:19.095Z,45.33
2019-04-04T19:32:50.372Z,45.27
2019-04-04T19:35:20.144Z,45.19
2019-04-04T19:37:59.420Z,45.20
2019-04-04T19:40:21.186Z,45.17
2019-04-04T19:42:50.927Z,45.27
2019-04-04T19:45:21.424Z,45.38
2019-04-04T19:47:51.262Z,45.35
2019-04-04T19:50:20.972Z,45.52
2019-04-04T19:52:50.662Z,45.73
2019-04-04T19:55:21.416Z,45.92
2019-04-04T19:57:51.117Z,46.09
2019-04-04T20:00:21.071Z,46.28
2019-04-04T20:02:50.717Z,46.29
2019-04-04T20:05:20.463Z,46.19
2019-04-04T20:07:50.284Z,46.27
2019-04-04T20:10:20.150Z,46.35
2019-04-04T20:12:49.879Z,46.47
2019-04-04T20:15:21.934Z,46.49
2019-04-04T20:17:51.564Z,46.59
2019-04-04T20:20:21.274Z,46.53
2019-04-04T20:22:50.913Z,46.56
2019-04-04T20:25:20.565Z,46.63
2019-04-04T20:27:55.054Z,46.53
2019-04-04T20:30:24.618Z,46.44
2019-04-04T20:32:54.308Z,46.44
2019-04-04T20:35:26.774Z,46.47
2019-04-04T20:37:55.722Z,46.65
2019-04-04T20:40:27.433Z,46.68
2019-04-04T20:42:57.099Z,46.67
2019-04-04T20:45:26.749Z,46.78
2019-04-04T20:47:56.378Z,46.83
2019-04-04T20:50:26.077Z,46.83
2019-04-04T20:52:57.217Z,46.97
2019-04-04T20:55:26.925Z,46.91
2019-04-04T20:57:56.666Z,46.96
2019-04-04T21:00:26.297Z,46.97
2019-04-04T21:02:55.934Z,47.07
2019-04-04T21:05:25.614Z,47.07
2019-04-04T21:07:55.776Z,47.18
2019-04-04T21:10:25.392Z,47.21
2019-04-04T21:12:55.099Z,47.41
2019-04-04T21:15:24.772Z,47.39
2019-04-04T21:17:54.541Z,47.40
2019-04-04T21:20:24.352Z,47.53
2019-04-04T21:22:54.006Z,47.96
2019-04-04T21:25:23.638Z,48.00
2019-04-04T21:27:53.324Z,48.08
2019-04-04T21:30:22.959Z,48.16
2019-04-04T21:32:52.611Z,48.11
2019-04-04T21:35:22.351Z,48.04
2019-04-04T21:37:53.508Z,48.00
2019-04-04T21:40:23.146Z,47.99
2019-04-04T21:42:52.867Z,48.06
2019-04-04T21:45:22.492Z,48.08
2019-04-04T21:47:52.130Z,48.20
2019-04-04T21:50:21.894Z,48.60
2019-04-04T21:52:51.528Z,48.49
2019-04-04T21:55:21.155Z,48.68
2019-04-04T21:57:53.604Z,48.51
2019-04-04T22:00:23.693Z,48.88
2019-04-04T22:02:53.401Z,48.90
2019-04-04T22:05:23.586Z,48.98
2019-04-04T22:07:53.204Z,49.02
2019-04-04T22:10:22.840Z,48.98
2019-04-04T22:12:52.655Z,48.89
2019-04-04T22:15:22.439Z,48.86
2019-04-04T22:17:52.213Z,48.82
2019-04-04T22:20:22.104Z,48.73
2019-04-04T22:22:53.321Z,48.71
2019-04-04T22:25:23.096Z,48.86
2019-04-04T22:27:52.944Z,48.81
2019-04-04T22:30:22.728Z,48.80
2019-04-04T22:32:52.449Z,48.89
2019-04-04T22:35:23.163Z,49.15
2019-04-04T22:37:53.116Z,49.12
2019-04-04T22:40:22.897Z,49.25
2019-04-04T22:42:55.449Z,49.36
2019-04-04T22:45:25.222Z,49.45
2019-04-04T22:47:55.059Z,49.47
2019-04-04T22:50:24.815Z,49.55
2019-04-04T22:52:54.617Z,49.61
2019-04-04T22:55:26.604Z,49.68
2019-04-04T22:57:55.779Z,49.76
2019-04-04T23:00:25.497Z,49.74
2019-04-04T23:02:55.819Z,49.71
2019-04-04T23:05:25.563Z,49.78
2019-04-04T23:07:55.741Z,49.85
2019-04-04T23:10:27.245Z,49.85
2019-04-04T23:12:57.109Z,49.88
2019-04-04T23:15:26.959Z,49.87
2019-04-04T23:17:56.725Z,49.89
2019-04-04T23:20:26.530Z,49.95
2019-04-04T23:22:56.291Z,50.02
2019-04-04T23:25:26.057Z,50.15
2019-04-04T23:27:55.961Z,50.30
2019-04-04T23:30:25.789Z,50.49
2019-04-04T23:32:55.927Z,50.64
2019-04-04T23:35:28.220Z,50.72
2019-04-04T23:37:58.909Z,50.82
2019-04-04T23:40:28.616Z,50.92
2019-04-04T23:42:58.689Z,51.10
2019-04-04T23:45:28.390Z,51.22
2019-04-04T23:47:59.130Z,51.30
2019-04-04T23:50:29.461Z,51.40
2019-04-04T23:53:01.128Z,51.48
2019-04-04T23:55:30.927Z,51.59
2019-04-04T23:58:01.276Z,51.61
